createdAt,value
2019-02-28T00:01:51.581Z,59.50
2019-02-28T00:04:20.336Z,60.20
2019-02-28T00:06:49.057Z,59.60
2019-02-28T00:09:17.809Z,59.70
2019-02-28T00:11:46.529Z,59.60
2019-02-28T00:14:15.290Z,59.60
2019-02-28T00:16:44.002Z,59.80
2019-02-28T00:19:12.809Z,60.00
2019-02-28T00:21:41.493Z,60.00
2019-02-28T00:24:10.238Z,60.10
2019-02-28T00:26:38.954Z,60.20
2019-02-28T00:29:09.413Z,60.30
2019-02-28T00:31:38.138Z,60.50
2019-02-28T00:34:06.861Z,60.50
2019-02-28T00:36:35.567Z,60.50
2019-02-28T00:39:06.045Z,60.60
2019-02-28T00:41:34.853Z,60.50
2019-02-28T00:44:04.455Z,60.40
2019-02-28T00:46:33.387Z,60.20
2019-02-28T00:49:02.134Z,60.20
2019-02-28T00:51:30.846Z,60.10
2019-02-28T00:53:59.587Z,60.10
2019-02-28T00:56:28.313Z,60.20
2019-02-28T00:58:57.022Z,60.40
2019-02-28T01:01:25.743Z,60.30
2019-02-28T01:03:54.453Z,60.50
2019-02-28T01:06:23.157Z,60.80
2019-02-28T01:08:53.025Z,61.00
2019-02-28T01:11:22.425Z,61.10
2019-02-28T01:13:51.153Z,61.00
2019-02-28T01:16:20.130Z,61.20
2019-02-28T01:18:48.921Z,61.60
2019-02-28T01:21:17.641Z,61.90
2019-02-28T01:23:46.376Z,62.10
2019-02-28T01:26:15.177Z,62.10
2019-02-28T01:28:43.977Z,62.50
2019-02-28T01:31:12.711Z,62.50
2019-02-28T01:33:41.440Z,62.70
2019-02-28T01:36:12.244Z,62.80
2019-02-28T01:38:40.629Z,63.00
2019-02-28T01:41:11.203Z,62.90
2019-02-28T01:43:39.886Z,63.40
2019-02-28T01:46:08.653Z,63.50
2019-02-28T01:48:37.368Z,63.60
2019-02-28T01:51:06.067Z,63.60
2019-02-28T01:53:34.910Z,63.80
2019-02-28T01:56:03.657Z,63.80
2019-02-28T01:58:32.390Z,63.80
2019-02-28T02:01:01.197Z,63.90
2019-02-28T02:03:29.906Z,63.90
2019-02-28T02:05:58.635Z,64.00
2019-02-28T02:08:27.428Z,64.10
2019-02-28T02:10:56.199Z,64.30
2019-02-28T02:13:24.941Z,64.20
2019-02-28T02:15:53.701Z,64.40
2019-02-28T02:18:22.405Z,64.50
2019-02-28T02:20:51.244Z,64.70
2019-02-28T02:23:19.978Z,64.50
2019-02-28T02:25:48.711Z,64.80
2019-02-28T02:28:17.448Z,64.80
2019-02-28T02:30:50.514Z,64.70
2019-02-28T02:33:17.619Z,64.90
2019-02-28T02:35:46.371Z,64.70
2019-02-28T02:38:15.113Z,65.00
2019-02-28T02:40:43.855Z,65.20
2019-02-28T02:43:12.574Z,65.00
2019-02-28T02:45:43.483Z,65.20
2019-02-28T02:48:11.758Z,65.60
2019-02-28T02:50:40.637Z,65.40
2019-02-28T02:53:09.461Z,65.40
2019-02-28T02:55:38.191Z,65.50
2019-02-28T02:58:06.938Z,65.60
2019-02-28T03:00:35.694Z,66.30
2019-02-28T03:03:06.029Z,65.80
2019-02-28T03:05:35.937Z,66.00
2019-02-28T03:08:05.591Z,65.90
2019-02-28T03:10:34.324Z,67.10
2019-02-28T03:13:04.749Z,67.20
2019-02-28T03:15:33.494Z,67.50
2019-02-28T03:18:02.248Z,67.60
2019-02-28T03:20:30.964Z,67.60
2019-02-28T03:23:01.997Z,67.50
2019-02-28T03:25:30.198Z,67.60
2019-02-28T03:27:58.912Z,67.70
2019-02-28T03:30:32.413Z,68.70
2019-02-28T03:32:58.073Z,68.30
2019-02-28T03:35:40.176Z,68.30
2019-02-28T03:37:57.402Z,68.20
2019-02-28T03:40:26.156Z,68.10
2019-02-28T03:42:54.851Z,68.20
2019-02-28T03:45:23.585Z,68.50
2019-02-28T03:47:58.355Z,68.40
2019-02-28T03:50:23.151Z,68.60
2019-02-28T03:52:52.592Z,68.80
2019-02-28T03:55:21.294Z,69.00
2019-02-28T03:57:50.148Z,69.10
2019-02-28T04:00:19.473Z,68.90
2019-02-28T04:02:48.209Z,69.10
2019-02-28T04:05:17.093Z,69.00
2019-02-28T04:07:52.812Z,69.30
2019-02-28T04:10:20.552Z,69.40
2019-02-28T04:12:47.228Z,69.70
2019-02-28T04:15:16.469Z,69.60
2019-02-28T04:17:45.375Z,69.80
2019-02-28T04:20:14.264Z,69.90
2019-02-28T04:22:42.989Z,70.10
2019-02-28T04:25:11.991Z,70.20
2019-02-28T04:27:41.853Z,70.80
2019-02-28T04:30:11.455Z,70.50
2019-02-28T04:32:40.158Z,70.30
2019-02-28T04:35:08.980Z,70.30
2019-02-28T04:37:44.589Z,70.50
2019-02-28T04:40:08.469Z,70.80
2019-02-28T04:42:37.335Z,71.00
2019-02-28T04:45:07.330Z,71.20
2019-02-28T04:47:37.230Z,71.20
2019-02-28T04:50:06.679Z,71.40
2019-02-28T04:52:35.461Z,71.80
2019-02-28T04:55:04.443Z,71.90
2019-02-28T04:57:33.174Z,72.00
2019-02-28T05:00:01.917Z,72.20
2019-02-28T05:02:31.045Z,72.50
2019-02-28T05:04:59.885Z,72.50
2019-02-28T05:07:29.609Z,72.80
2019-02-28T05:09:59.190Z,73.00
2019-02-28T05:12:27.899Z,73.40
2019-02-28T05:14:58.417Z,73.40
2019-02-28T05:17:27.075Z,73.70
2019-02-28T05:19:55.843Z,73.70
2019-02-28T05:22:27.523Z,73.70
2019-02-28T05:24:54.998Z,73.80
2019-02-28T05:27:24.465Z,73.70
2019-02-28T05:29:53.421Z,73.40
2019-02-28T05:32:22.154Z,73.30
2019-02-28T05:34:51.820Z,73.40
2019-02-28T05:37:20.653Z,73.50
2019-02-28T05:39:49.370Z,73.50
2019-02-28T05:42:20.355Z,73.30
2019-02-28T05:44:48.647Z,73.00
2019-02-28T05:47:17.398Z,72.70
2019-02-28T05:49:46.097Z,72.30
2019-02-28T05:52:15.026Z,72.10
2019-02-28T05:54:43.772Z,72.30
2019-02-28T05:57:14.109Z,72.20
2019-02-28T05:59:42.823Z,72.00
2019-02-28T06:02:11.549Z,72.40
2019-02-28T06:04:40.285Z,72.30
2019-02-28T06:07:11.564Z,72.50
2019-02-28T06:09:40.266Z,72.80
2019-02-28T06:12:09.520Z,73.00
2019-02-28T06:14:38.993Z,73.30
2019-02-28T06:17:07.729Z,73.50
2019-02-28T06:19:36.497Z,73.40
2019-02-28T06:22:05.335Z,73.20
2019-02-28T06:24:34.057Z,72.90
2019-02-28T06:27:03.621Z,73.00
2019-02-28T06:29:33.249Z,72.80
2019-02-28T06:32:01.958Z,72.70
2019-02-28T06:34:30.673Z,72.50
2019-02-28T06:37:00.347Z,72.60
2019-02-28T06:39:29.851Z,72.70
2019-02-28T06:41:58.550Z,72.80
2019-02-28T06:44:27.743Z,72.80
2019-02-28T06:47:08.057Z,73.00
2019-02-28T06:49:40.983Z,72.60
2019-02-28T06:52:07.325Z,72.40
2019-02-28T06:54:36.025Z,72.70
2019-02-28T06:57:04.762Z,72.70
2019-02-28T06:59:36.249Z,72.80
2019-02-28T07:02:04.031Z,73.10
2019-02-28T07:04:32.834Z,73.30
2019-02-28T07:07:01.566Z,73.70
2019-02-28T07:09:30.517Z,73.90
2019-02-28T07:11:59.485Z,74.10
2019-02-28T07:14:28.185Z,74.70
2019-02-28T07:16:56.913Z,74.30
2019-02-28T07:19:26.296Z,74.50
2019-02-28T07:21:55.745Z,74.80
2019-02-28T07:24:24.484Z,75.10
2019-02-28T07:26:53.320Z,75.10
2019-02-28T07:29:22.017Z,75.10
2019-02-28T07:31:50.742Z,76.00
2019-02-28T07:34:22.055Z,75.10
2019-02-28T07:36:49.949Z,75.10
2019-02-28T07:39:18.665Z,75.20
2019-02-28T07:41:47.414Z,75.30
2019-02-28T07:44:21.038Z,75.20
2019-02-28T07:46:46.588Z,75.30
2019-02-28T07:49:15.425Z,75.40
2019-02-28T07:51:44.235Z,75.70
2019-02-28T07:54:15.869Z,75.60
2019-02-28T07:56:44.295Z,75.50
2019-02-28T07:59:13.270Z,75.70
2019-02-28T08:01:42.013Z,75.90
2019-02-28T08:04:10.755Z,76.10
2019-02-28T08:06:42.598Z,76.40
2019-02-28T08:09:22.447Z,76.50
2019-02-28T08:11:51.676Z,76.90
2019-02-28T08:14:21.734Z,77.10
2019-02-28T08:16:50.485Z,76.20
2019-02-28T08:19:19.207Z,76.30
2019-02-28T08:21:50.439Z,77.10
2019-02-28T08:24:18.417Z,76.70
2019-02-28T08:26:47.149Z,76.70
2019-02-28T08:29:16.015Z,76.90
2019-02-28T08:31:44.730Z,76.80
2019-02-28T08:34:13.625Z,77.10
2019-02-28T08:36:43.828Z,77.50
2019-02-28T08:39:16.477Z,77.20
2019-02-28T08:41:45.397Z,77.20
2019-02-28T08:44:14.372Z,77.30
2019-02-28T08:46:43.493Z,77.10
2019-02-28T08:49:13.667Z,77.30
2019-02-28T08:51:43.241Z,77.20
2019-02-28T08:54:13.286Z,77.00
2019-02-28T08:56:42.090Z,76.90
2019-02-28T08:59:11.971Z,77.20
2019-02-28T09:01:43.482Z,77.20
2019-02-28T09:04:11.475Z,77.20
2019-02-28T09:06:40.888Z,77.20
2019-02-28T09:09:11.761Z,77.20
2019-02-28T09:11:40.477Z,77.00
2019-02-28T09:14:10.388Z,77.20
2019-02-28T09:16:39.719Z,77.30
2019-02-28T09:19:09.173Z,77.20
2019-02-28T09:21:37.882Z,77.90
2019-02-28T09:24:09.397Z,77.20
2019-02-28T09:26:37.425Z,77.00
2019-02-28T09:29:06.165Z,77.10
2019-02-28T09:31:38.824Z,76.90
2019-02-28T09:34:05.416Z,76.80
2019-02-28T09:36:34.170Z,76.60
2019-02-28T09:39:04.290Z,76.20
2019-02-28T09:41:33.015Z,75.90
2019-02-28T09:44:01.735Z,75.70
2019-02-28T09:46:30.458Z,75.70
2019-02-28T09:48:59.991Z,75.60
2019-02-28T09:51:31.718Z,75.20
2019-02-28T09:53:59.215Z,75.20
2019-02-28T09:56:27.953Z,75.20
2019-02-28T09:58:56.710Z,75.10
2019-02-28T10:01:25.947Z,75.10
2019-02-28T10:03:55.354Z,75.00
2019-02-28T10:06:24.959Z,75.20
2019-02-28T10:08:53.681Z,74.70
2019-02-28T10:11:23.698Z,74.60
2019-02-28T10:13:53.177Z,74.30
2019-02-28T10:16:22.840Z,74.30
2019-02-28T10:18:51.553Z,73.90
2019-02-28T10:21:20.285Z,73.90
2019-02-28T10:23:49.154Z,73.90
2019-02-28T10:26:18.014Z,73.90
2019-02-28T10:28:46.704Z,73.80
2019-02-28T10:31:15.459Z,73.90
2019-02-28T10:33:44.174Z,73.70
2019-02-28T10:36:15.286Z,73.50
2019-02-28T10:38:44.026Z,73.60
2019-02-28T10:41:15.470Z,73.60
2019-02-28T10:43:49.935Z,73.70
2019-02-28T10:46:16.571Z,74.00
2019-02-28T10:48:50.763Z,74.40
2019-02-28T10:51:15.679Z,74.40
2019-02-28T10:53:44.401Z,74.80
2019-02-28T10:56:13.858Z,74.90
2019-02-28T10:58:42.631Z,75.10
2019-02-28T11:01:12.299Z,75.00
2019-02-28T11:03:41.105Z,75.30
2019-02-28T11:06:09.829Z,75.10
2019-02-28T11:08:38.609Z,75.10
2019-02-28T11:11:10.535Z,74.80
2019-02-28T11:13:38.133Z,74.90
2019-02-28T11:16:06.969Z,74.70
2019-02-28T11:18:36.490Z,75.40
2019-02-28T11:21:05.421Z,74.50
2019-02-28T11:23:34.226Z,74.40
2019-02-28T11:26:03.029Z,74.00
2019-02-28T11:28:31.810Z,73.80
2019-02-28T11:31:00.689Z,74.10
2019-02-28T11:33:29.658Z,73.80
2019-02-28T11:35:59.413Z,73.70
2019-02-28T11:38:28.370Z,73.60
2019-02-28T11:40:57.699Z,73.60
2019-02-28T11:43:26.857Z,73.40
2019-02-28T11:45:56.520Z,73.40
2019-02-28T11:48:26.654Z,73.20
2019-02-28T11:50:55.365Z,73.10
2019-02-28T11:53:24.112Z,74.00
2019-02-28T11:55:53.588Z,73.00
2019-02-28T11:58:23.291Z,72.70
2019-02-28T12:00:52.187Z,72.60
2019-02-28T12:03:20.989Z,72.50
2019-02-28T12:05:50.714Z,72.50
2019-02-28T12:08:20.046Z,72.20
2019-02-28T12:10:48.902Z,71.90
2019-02-28T12:13:19.654Z,71.60
2019-02-28T12:15:48.240Z,71.20
2019-02-28T12:18:16.957Z,71.10
2019-02-28T12:20:45.729Z,71.00
2019-02-28T12:23:14.657Z,71.00
2019-02-28T12:25:43.634Z,70.90
2019-02-28T12:28:12.421Z,70.70
2019-02-28T12:30:41.353Z,70.00
2019-02-28T12:33:10.103Z,69.60
2019-02-28T12:35:40.693Z,69.40
2019-02-28T12:38:09.576Z,69.20
2019-02-28T12:40:38.339Z,68.90
2019-02-28T12:43:08.751Z,68.60
2019-02-28T12:45:38.385Z,68.40
2019-02-28T12:48:07.358Z,68.30
2019-02-28T12:50:36.272Z,68.00
2019-02-28T12:53:05.185Z,68.30
2019-02-28T12:55:35.499Z,68.40
2019-02-28T12:58:04.816Z,68.50
2019-02-28T13:00:35.700Z,68.60
2019-02-28T13:03:04.774Z,68.60
2019-02-28T13:05:33.493Z,68.60
2019-02-28T13:08:05.721Z,68.50
2019-02-28T13:10:32.930Z,68.30
2019-02-28T13:13:06.391Z,68.40
2019-02-28T13:15:32.391Z,68.40
2019-02-28T13:18:07.491Z,68.50
2019-02-28T13:20:36.753Z,68.80
2019-02-28T13:23:05.747Z,69.10
2019-02-28T13:25:34.672Z,69.30
2019-02-28T13:28:03.466Z,69.80
2019-02-28T13:30:32.360Z,70.00
2019-02-28T13:33:01.149Z,70.40
2019-02-28T13:35:30.520Z,70.70
2019-02-28T13:37:59.468Z,71.00
2019-02-28T13:40:28.331Z,71.20
2019-02-28T13:42:57.203Z,71.50
2019-02-28T13:45:26.460Z,71.70
2019-02-28T13:47:55.373Z,71.90
2019-02-28T13:50:26.932Z,71.70
2019-02-28T13:52:56.733Z,71.80
2019-02-28T13:55:25.718Z,71.80
2019-02-28T13:57:54.517Z,71.90
2019-02-28T14:00:25.498Z,72.00
2019-02-28T14:02:56.265Z,71.80
2019-02-28T14:05:25.131Z,71.70
2019-02-28T14:07:53.861Z,71.70
2019-02-28T14:10:23.566Z,71.50
2019-02-28T14:12:57.183Z,71.80
2019-02-28T14:15:29.146Z,71.90
2019-02-28T14:17:58.009Z,71.80
2019-02-28T14:20:27.730Z,71.70
2019-02-28T14:22:57.302Z,71.80
2019-02-28T14:25:26.324Z,72.00
2019-02-28T14:27:56.967Z,72.10
2019-02-28T14:30:26.692Z,72.40
2019-02-28T14:32:55.509Z,72.50
2019-02-28T14:35:25.107Z,72.50
2019-02-28T14:37:55.583Z,72.50
2019-02-28T14:40:24.456Z,72.60
2019-02-28T14:42:53.182Z,72.70
2019-02-28T14:45:22.263Z,72.70
2019-02-28T14:47:56.794Z,72.70
2019-02-28T14:50:22.857Z,73.00
2019-02-28T14:52:53.037Z,72.80
2019-02-28T14:55:21.854Z,73.10
2019-02-28T14:57:50.724Z,73.10
2019-02-28T15:00:27.517Z,73.20
2019-02-28T15:02:59.441Z,73.40
2019-02-28T15:05:27.230Z,73.20
2019-02-28T15:07:56.795Z,73.00
2019-02-28T15:10:25.714Z,72.60
2019-02-28T15:12:55.360Z,71.90
2019-02-28T15:15:25.398Z,71.60
2019-02-28T15:17:54.137Z,71.00
2019-02-28T15:20:23.010Z,70.80
2019-02-28T15:22:52.510Z,70.60
2019-02-28T15:25:22.375Z,70.20
2019-02-28T15:27:51.170Z,70.00
2019-02-28T15:30:22.485Z,69.60
2019-02-28T15:32:54.282Z,69.40
2019-02-28T15:35:22.782Z,69.30
2019-02-28T15:37:51.713Z,69.30
2019-02-28T15:40:25.804Z,70.10
2019-02-28T15:42:56.371Z,69.60
2019-02-28T15:45:26.849Z,69.70
2019-02-28T15:47:59.171Z,69.50
2019-02-28T15:50:27.131Z,69.70
2019-02-28T15:52:55.962Z,69.80
2019-02-28T15:55:24.942Z,70.10
2019-02-28T15:57:54.207Z,70.10
2019-02-28T16:00:25.218Z,69.90
2019-02-28T16:02:54.170Z,70.40
2019-02-28T16:05:26.875Z,70.80
2019-02-28T16:07:57.038Z,70.60
2019-02-28T16:10:28.609Z,70.80
2019-02-28T16:12:58.188Z,71.00
2019-02-28T16:15:27.079Z,71.10
2019-02-28T16:17:55.871Z,71.10
2019-02-28T16:20:25.117Z,71.20
2019-02-28T16:22:53.898Z,71.40
2019-02-28T16:25:25.138Z,71.50
2019-02-28T16:27:54.035Z,71.70
2019-02-28T16:30:23.128Z,71.70
2019-02-28T16:32:51.920Z,71.90
2019-02-28T16:35:20.686Z,71.70
2019-02-28T16:37:49.406Z,71.90
2019-02-28T16:40:20.790Z,71.70
2019-02-28T16:42:49.638Z,71.90
2019-02-28T16:45:31.809Z,72.70
2019-02-28T16:48:03.194Z,72.10
2019-02-28T16:50:33.503Z,71.70
2019-02-28T16:53:02.282Z,72.10
2019-02-28T16:55:31.845Z,72.00
2019-02-28T16:58:00.952Z,72.10
2019-02-28T17:00:29.901Z,72.30
2019-02-28T17:02:58.761Z,72.20
2019-02-28T17:05:28.350Z,72.50
2019-02-28T17:07:57.373Z,72.40
2019-02-28T17:10:30.990Z,72.50
2019-02-28T17:13:25.016Z,72.70
2019-02-28T17:16:01.419Z,72.60
2019-02-28T17:18:29.586Z,72.90
2019-02-28T17:20:58.344Z,73.00
2019-02-28T17:23:27.162Z,73.20
2019-02-28T17:25:56.523Z,73.40
2019-02-28T17:28:49.851Z,73.50
2019-02-28T17:31:37.010Z,73.90
2019-02-28T17:34:05.939Z,74.60
2019-02-28T17:36:34.715Z,74.00
2019-02-28T17:39:04.094Z,74.10
2019-02-28T17:41:34.044Z,74.30
2019-02-28T17:44:34.045Z,74.20
2019-02-28T17:47:04.794Z,75.10
2019-02-28T17:50:17.175Z,74.80
2019-02-28T17:53:10.377Z,75.10
2019-02-28T17:56:04.879Z,75.20
2019-02-28T17:59:08.792Z,75.80
2019-02-28T18:01:53.488Z,76.20
2019-02-28T18:04:50.085Z,75.50
2019-02-28T18:07:57.824Z,76.40
2019-02-28T18:11:00.247Z,76.70
2019-02-28T18:14:02.518Z,77.10
2019-02-28T18:16:44.469Z,77.50
2019-02-28T18:19:44.631Z,77.80
2019-02-28T18:22:40.770Z,78.10
2019-02-28T18:25:38.177Z,78.30
2019-02-28T18:28:36.463Z,78.60
2019-02-28T18:31:19.137Z,79.00
2019-02-28T18:33:54.569Z,78.90
2019-02-28T18:36:25.600Z,79.30
2019-02-28T18:38:54.313Z,79.60
2019-02-28T18:41:25.253Z,79.40
2019-02-28T18:43:53.961Z,79.60
2019-02-28T18:46:22.781Z,80.00
2019-02-28T18:48:54.288Z,80.30
2019-02-28T18:51:21.957Z,80.40
2019-02-28T18:53:50.726Z,80.20
2019-02-28T18:56:19.557Z,80.50
2019-02-28T18:58:48.274Z,80.70
2019-02-28T19:01:17.151Z,80.80
2019-02-28T19:03:45.968Z,80.70
2019-02-28T19:06:14.746Z,80.70
2019-02-28T19:08:43.466Z,80.70
2019-02-28T19:11:12.205Z,80.60
2019-02-28T19:13:41.055Z,80.90
2019-02-28T19:16:09.814Z,81.00
2019-02-28T19:18:38.602Z,81.10
2019-02-28T19:21:07.323Z,81.30
2019-02-28T19:23:36.048Z,81.40
2019-02-28T19:26:04.965Z,81.70
2019-02-28T19:28:33.694Z,81.70
2019-02-28T19:31:02.478Z,81.60
2019-02-28T19:33:31.253Z,82.00
2019-02-28T19:35:59.995Z,81.90
2019-02-28T19:38:28.714Z,81.90
2019-02-28T19:40:57.518Z,81.80
2019-02-28T19:43:26.303Z,81.70
2019-02-28T19:45:55.548Z,81.50
2019-02-28T19:48:24.395Z,81.60
2019-02-28T19:50:53.154Z,81.80
2019-02-28T19:53:22.010Z,81.70
2019-02-28T19:55:50.742Z,81.60
2019-02-28T19:58:19.459Z,81.80
2019-02-28T20:00:48.217Z,81.80
2019-02-28T20:03:17.085Z,81.90
2019-02-28T20:05:45.886Z,81.60
2019-02-28T20:08:14.835Z,81.80
2019-02-28T20:10:43.657Z,81.80
2019-02-28T20:13:12.375Z,81.80
2019-02-28T20:15:41.956Z,82.00
2019-02-28T20:18:10.842Z,82.10
2019-02-28T20:20:40.185Z,82.20
2019-02-28T20:23:09.150Z,82.30
2019-02-28T20:25:38.029Z,82.20
2019-02-28T20:28:06.790Z,82.50
2019-02-28T20:30:35.749Z,82.80
2019-02-28T20:33:04.595Z,83.00
2019-02-28T20:35:33.483Z,82.80
2019-02-28T20:38:02.305Z,83.10
2019-02-28T20:40:31.077Z,83.40
2019-02-28T20:42:59.862Z,83.50
2019-02-28T20:45:28.714Z,83.80
2019-02-28T20:47:57.717Z,83.30
2019-02-28T20:50:29.726Z,83.60
2019-02-28T20:52:58.470Z,84.00
2019-02-28T20:55:27.404Z,84.10
2019-02-28T20:57:56.222Z,84.30
2019-02-28T21:00:26.077Z,84.10
2019-02-28T21:02:54.946Z,84.50
2019-02-28T21:05:24.118Z,84.60
2019-02-28T21:07:53.081Z,84.40
2019-02-28T21:10:21.901Z,84.60
2019-02-28T21:12:50.722Z,84.50
2019-02-28T21:15:19.441Z,84.70
2019-02-28T21:17:48.254Z,84.80
2019-02-28T21:20:17.151Z,84.80
2019-02-28T21:22:45.991Z,84.80
2019-02-28T21:25:14.942Z,85.00
2019-02-28T21:27:43.716Z,85.10
2019-02-28T21:30:15.274Z,85.10
2019-02-28T21:32:43.997Z,85.10
2019-02-28T21:35:13.010Z,85.30
2019-02-28T21:37:41.982Z,85.10
2019-02-28T21:40:11.540Z,85.20
2019-02-28T21:42:40.278Z,85.10
2019-02-28T21:45:10.164Z,85.90
2019-02-28T21:47:40.896Z,85.30
2019-02-28T21:50:13.614Z,85.70
2019-02-28T21:52:42.394Z,85.70
2019-02-28T21:55:14.571Z,85.80
2019-02-28T21:57:43.678Z,85.70
2019-02-28T22:00:17.974Z,85.70
2019-02-28T22:02:49.835Z,85.50
2019-02-28T22:05:18.646Z,85.70
2019-02-28T22:07:52.182Z,86.60
2019-02-28T22:10:21.291Z,85.50
2019-02-28T22:12:50.150Z,85.70
2019-02-28T22:15:19.157Z,85.60
2019-02-28T22:17:47.906Z,85.20
2019-02-28T22:20:16.887Z,85.40
2019-02-28T22:22:51.707Z,85.70
2019-02-28T22:25:20.510Z,85.90
2019-02-28T22:27:49.330Z,86.10
2019-02-28T22:30:47.265Z,86.30
2019-02-28T22:33:23.524Z,86.30
2019-02-28T22:35:54.941Z,86.50
2019-02-28T22:38:23.649Z,86.40
2019-02-28T22:40:52.388Z,86.80
2019-02-28T22:43:22.148Z,87.00
2019-02-28T22:45:50.917Z,86.90
2019-02-28T22:48:22.398Z,87.20
2019-02-28T22:50:51.130Z,87.20
2019-02-28T22:53:19.853Z,87.30
2019-02-28T22:55:51.677Z,87.90
2019-02-28T22:58:20.441Z,87.00
2019-02-28T23:00:59.670Z,87.30
2019-02-28T23:03:29.806Z,87.60
2019-02-28T23:06:01.399Z,87.50
2019-02-28T23:08:31.127Z,86.60
2019-02-28T23:10:59.953Z,87.40
2019-02-28T23:13:28.922Z,87.60
2019-02-28T23:15:57.737Z,87.60
2019-02-28T23:18:26.558Z,87.90
2019-02-28T23:20:55.355Z,88.10
2019-02-28T23:23:24.069Z,88.20
2019-02-28T23:25:53.072Z,88.20
2019-02-28T23:28:27.064Z,88.00
2019-02-28T23:31:18.751Z,88.20
2019-02-28T23:33:47.542Z,88.30
2019-02-28T23:36:16.274Z,87.70
2019-02-28T23:38:45.024Z,88.20
2019-02-28T23:41:14.001Z,88.40
2019-02-28T23:43:46.814Z,88.40
2019-02-28T23:46:15.570Z,87.60
2019-02-28T23:48:44.314Z,87.80
2019-02-28T23:51:13.133Z,88.30
2019-02-28T23:53:41.914Z,88.20
2019-02-28T23:56:10.678Z,88.20
2019-02-28T23:58:39.466Z,88.30
